sensor_id;sensor_type;location;lat;lon;timestamp;temperature;humidity
6666;DHT22;3369;49.906;8.598;2023-05-10T00:00:32;13.30;99.90
6666;DHT22;3369;49.906;8.598;2023-05-10T00:02:58;13.30;99.90
6666;DHT22;3369;49.906;8.598;2023-05-10T00:05:23;13.30;99.90
6666;DHT22;3369;49.906;8.598;2023-05-10T00:07:49;13.20;99.90
6666;DHT22;3369;49.906;8.598;2023-05-10T00:10:15;13.20;99.90
6666;DHT22;3369;49.906;8.598;2023-05-10T00:12:41;13.20;99.90
6666;DHT22;3369;49.906;8.598;2023-05-10T00:15:08;13.20;99.90
6666;DHT22;3369;49.906;8.598;2023-05-10T00:17:33;13.20;99.90
6666;DHT22;3369;49.906;8.598;2023-05-10T00:19:59;13.20;99.90
6666;DHT22;3369;49.906;8.598;2023-05-10T00:22:25;13.10;99.90
6666;DHT22;3369;49.906;8.598;2023-05-10T00:24:51;13.10;99.90
6666;DHT22;3369;49.906;8.598;2023-05-10T00:27:16;13.10;99.90
6666;DHT22;3369;49.906;8.598;2023-05-10T00:29:42;13.10;99.90
6666;DHT22;3369;49.906;8.598;2023-05-10T00:32:08;13.10;99.90
6666;DHT22;3369;49.906;8.598;2023-05-10T00:34:33;13.10;99.90
6666;DHT22;3369;49.906;8.598;2023-05-10T00:36:59;13.10;99.90
6666;DHT22;3369;49.906;8.598;2023-05-10T00:39:25;13.10;99.90
6666;DHT22;3369;49.906;8.598;2023-05-10T00:41:52;13.10;99.90
6666;DHT22;3369;49.906;8.598;2023-05-10T00:44:17;13.10;99.90
6666;DHT22;3369;49.906;8.598;2023-05-10T00:46:44;13.10;99.90
6666;DHT22;3369;49.906;8.598;2023-05-10T00:49:10;13.00;99.90
6666;DHT22;3369;49.906;8.598;2023-05-10T00:51:36;13.00;99.90
6666;DHT22;3369;49.906;8.598;2023-05-10T00:54:02;13.00;99.90
6666;DHT22;3369;49.906;8.598;2023-05-10T00:56:28;13.00;99.90
6666;DHT22;3369;49.906;8.598;2023-05-10T00:58:55;13.00;99.90
6666;DHT22;3369;49.906;8.598;2023-05-10T01:01:21;13.00;99.90
6666;DHT22;3369;49.906;8.598;2023-05-10T01:03:47;13.00;99.90
6666;DHT22;3369;49.906;8.598;2023-05-10T01:06:13;13.00;99.90
6666;DHT22;3369;49.906;8.598;2023-05-10T01:30:25;12.90;99.90
6666;DHT22;3369;49.906;8.598;2023-05-10T01:39:08;12.90;99.90
6666;DHT22;3369;49.906;8.598;2023-05-10T01:47:01;12.80;99.90
6666;DHT22;3369;49.906;8.598;2023-05-10T01:49:33;12.80;99.90
6666;DHT22;3369;49.906;8.598;2023-05-10T01:52:06;12.80;99.90
6666;DHT22;3369;49.906;8.598;2023-05-10T01:54:33;12.80;99.90
6666;DHT22;3369;49.906;8.598;2023-05-10T01:57:03;12.80;99.90
6666;DHT22;3369;49.906;8.598;2023-05-10T01:59:34;12.80;99.90
6666;DHT22;3369;49.906;8.598;2023-05-10T02:02:07;12.80;99.90
6666;DHT22;3369;49.906;8.598;2023-05-10T02:04:35;12.80;99.90
6666;DHT22;3369;49.906;8.598;2023-05-10T02:07:03;12.80;99.90
6666;DHT22;3369;49.906;8.598;2023-05-10T02:09:32;12.80;99.90
6666;DHT22;3369;49.906;8.598;2023-05-10T02:12:00;12.80;99.90
6666;DHT22;3369;49.906;8.598;2023-05-10T02:14:30;12.80;99.90
6666;DHT22;3369;49.906;8.598;2023-05-10T02:16:58;12.80;99.90
6666;DHT22;3369;49.906;8.598;2023-05-10T02:19:26;12.80;99.90
6666;DHT22;3369;49.906;8.598;2023-05-10T02:21:54;12.80;99.90
6666;DHT22;3369;49.906;8.598;2023-05-10T02:24:20;12.80;99.90
6666;DHT22;3369;49.906;8.598;2023-05-10T02:26:47;12.80;99.90
6666;DHT22;3369;49.906;8.598;2023-05-10T02:29:16;12.80;99.90
6666;DHT22;3369;49.906;8.598;2023-05-10T02:31:43;12.80;99.90
6666;DHT22;3369;49.906;8.598;2023-05-10T02:34:10;12.80;99.90
6666;DHT22;3369;49.906;8.598;2023-05-10T02:36:38;12.80;99.90
6666;DHT22;3369;49.906;8.598;2023-05-10T02:39:04;12.80;99.90
6666;DHT22;3369;49.906;8.598;2023-05-10T02:41:35;12.80;99.90
6666;DHT22;3369;49.906;8.598;2023-05-10T02:44:02;12.70;99.90
6666;DHT22;3369;49.906;8.598;2023-05-10T02:46:29;12.70;99.90
6666;DHT22;3369;49.906;8.598;2023-05-10T02:48:55;12.70;99.90
6666;DHT22;3369;49.906;8.598;2023-05-10T02:51:24;12.70;99.90
6666;DHT22;3369;49.906;8.598;2023-05-10T02:53:52;12.70;99.90
6666;DHT22;3369;49.906;8.598;2023-05-10T02:56:36;12.70;99.90
6666;DHT22;3369;49.906;8.598;2023-05-10T02:59:05;12.70;99.90
6666;DHT22;3369;49.906;8.598;2023-05-10T03:01:30;12.70;99.90
6666;DHT22;3369;49.906;8.598;2023-05-10T03:03:56;12.70;99.90
6666;DHT22;3369;49.906;8.598;2023-05-10T03:06:21;12.70;99.90
6666;DHT22;3369;49.906;8.598;2023-05-10T03:08:47;12.70;99.90
6666;DHT22;3369;49.906;8.598;2023-05-10T03:11:35;12.70;99.90
6666;DHT22;3369;49.906;8.598;2023-05-10T03:14:23;12.70;99.90
6666;DHT22;3369;49.906;8.598;2023-05-10T03:17:08;12.70;99.90
6666;DHT22;3369;49.906;8.598;2023-05-10T03:22:10;12.70;99.90
6666;DHT22;3369;49.906;8.598;2023-05-10T03:24:39;12.70;99.90
6666;DHT22;3369;49.906;8.598;2023-05-10T03:27:08;12.70;99.90
6666;DHT22;3369;49.906;8.598;2023-05-10T03:29:33;12.70;99.90
6666;DHT22;3369;49.906;8.598;2023-05-10T03:31:59;12.80;99.90
6666;DHT22;3369;49.906;8.598;2023-05-10T03:34:25;12.80;99.90
6666;DHT22;3369;49.906;8.598;2023-05-10T03:36:51;12.70;99.90
6666;DHT22;3369;49.906;8.598;2023-05-10T03:39:17;12.70;99.90
6666;DHT22;3369;49.906;8.598;2023-05-10T03:41:43;12.70;99.90
6666;DHT22;3369;49.906;8.598;2023-05-10T03:44:08;12.70;99.90
6666;DHT22;3369;49.906;8.598;2023-05-10T03:46:34;12.70;99.90
6666;DHT22;3369;49.906;8.598;2023-05-10T03:49:00;12.70;99.90
6666;DHT22;3369;49.906;8.598;2023-05-10T03:51:25;12.70;99.90
6666;DHT22;3369;49.906;8.598;2023-05-10T03:53:56;12.70;99.90
6666;DHT22;3369;49.906;8.598;2023-05-10T03:56:22;12.60;99.90
6666;DHT22;3369;49.906;8.598;2023-05-10T03:58:47;12.60;99.90
6666;DHT22;3369;49.906;8.598;2023-05-10T04:01:13;12.60;99.90
6666;DHT22;3369;49.906;8.598;2023-05-10T04:03:39;12.60;99.90
6666;DHT22;3369;49.906;8.598;2023-05-10T04:06:04;12.60;99.90
6666;DHT22;3369;49.906;8.598;2023-05-10T04:08:31;12.60;99.90
6666;DHT22;3369;49.906;8.598;2023-05-10T04:11:07;12.60;99.90
6666;DHT22;3369;49.906;8.598;2023-05-10T04:13:33;12.70;99.90
6666;DHT22;3369;49.906;8.598;2023-05-10T04:15:59;12.60;99.90
6666;DHT22;3369;49.906;8.598;2023-05-10T04:18:24;12.70;99.90
6666;DHT22;3369;49.906;8.598;2023-05-10T04:20:50;12.70;99.90
6666;DHT22;3369;49.906;8.598;2023-05-10T04:23:16;12.70;99.90
6666;DHT22;3369;49.906;8.598;2023-05-10T04:25:42;12.60;99.90
6666;DHT22;3369;49.906;8.598;2023-05-10T04:28:08;12.60;99.90
6666;DHT22;3369;49.906;8.598;2023-05-10T04:30:34;12.70;99.90
6666;DHT22;3369;49.906;8.598;2023-05-10T04:33:00;12.70;99.90
6666;DHT22;3369;49.906;8.598;2023-05-10T04:35:27;12.70;99.90
6666;DHT22;3369;49.906;8.598;2023-05-10T04:37:53;12.70;99.90
6666;DHT22;3369;49.906;8.598;2023-05-10T04:40:19;12.70;99.90
6666;DHT22;3369;49.906;8.598;2023-05-10T04:42:45;12.70;99.90
6666;DHT22;3369;49.906;8.598;2023-05-10T04:45:11;12.80;99.90
6666;DHT22;3369;49.906;8.598;2023-05-10T04:47:36;12.80;99.90
6666;DHT22;3369;49.906;8.598;2023-05-10T04:50:03;12.80;99.90
6666;DHT22;3369;49.906;8.598;2023-05-10T04:52:28;12.80;99.90
6666;DHT22;3369;49.906;8.598;2023-05-10T04:54:54;12.80;99.90
6666;DHT22;3369;49.906;8.598;2023-05-10T04:57:20;12.90;99.90
6666;DHT22;3369;49.906;8.598;2023-05-10T04:59:45;12.90;99.90
6666;DHT22;3369;49.906;8.598;2023-05-10T05:02:11;12.90;99.90
6666;DHT22;3369;49.906;8.598;2023-05-10T05:04:37;12.90;99.90
6666;DHT22;3369;49.906;8.598;2023-05-10T05:07:02;12.90;99.90
6666;DHT22;3369;49.906;8.598;2023-05-10T05:09:28;12.90;99.90
6666;DHT22;3369;49.906;8.598;2023-05-10T05:11:53;12.90;99.90
6666;DHT22;3369;49.906;8.598;2023-05-10T05:14:19;12.90;99.90
6666;DHT22;3369;49.906;8.598;2023-05-10T05:16:46;12.90;99.90
6666;DHT22;3369;49.906;8.598;2023-05-10T05:19:12;12.90;99.90
6666;DHT22;3369;49.906;8.598;2023-05-10T05:21:37;12.90;99.90
6666;DHT22;3369;49.906;8.598;2023-05-10T05:24:03;12.80;99.90
6666;DHT22;3369;49.906;8.598;2023-05-10T05:26:29;12.80;99.90
6666;DHT22;3369;49.906;8.598;2023-05-10T05:28:55;12.80;99.90
6666;DHT22;3369;49.906;8.598;2023-05-10T05:31:21;12.80;99.90
6666;DHT22;3369;49.906;8.598;2023-05-10T05:33:46;12.80;99.90
6666;DHT22;3369;49.906;8.598;2023-05-10T05:36:12;12.80;99.90
6666;DHT22;3369;49.906;8.598;2023-05-10T05:38:38;12.80;99.90
6666;DHT22;3369;49.906;8.598;2023-05-10T05:41:03;12.80;99.90
6666;DHT22;3369;49.906;8.598;2023-05-10T05:43:29;12.90;99.90
6666;DHT22;3369;49.906;8.598;2023-05-10T05:45:54;12.90;99.90
6666;DHT22;3369;49.906;8.598;2023-05-10T05:48:20;12.90;99.90
6666;DHT22;3369;49.906;8.598;2023-05-10T05:50:46;12.90;99.90
6666;DHT22;3369;49.906;8.598;2023-05-10T05:53:12;12.90;99.90
6666;DHT22;3369;49.906;8.598;2023-05-10T05:55:37;12.90;99.90
6666;DHT22;3369;49.906;8.598;2023-05-10T05:58:03;12.90;99.90
6666;DHT22;3369;49.906;8.598;2023-05-10T06:00:29;13.00;99.90
6666;DHT22;3369;49.906;8.598;2023-05-10T06:02:54;13.00;99.90
6666;DHT22;3369;49.906;8.598;2023-05-10T06:05:20;13.10;99.90
6666;DHT22;3369;49.906;8.598;2023-05-10T06:07:46;13.10;99.90
6666;DHT22;3369;49.906;8.598;2023-05-10T06:10:11;13.10;99.90
6666;DHT22;3369;49.906;8.598;2023-05-10T06:12:37;13.20;99.90
6666;DHT22;3369;49.906;8.598;2023-05-10T06:15:03;13.30;99.90
6666;DHT22;3369;49.906;8.598;2023-05-10T06:17:29;13.30;99.90
6666;DHT22;3369;49.906;8.598;2023-05-10T06:19:55;13.40;99.90
6666;DHT22;3369;49.906;8.598;2023-05-10T06:22:21;13.40;99.90
6666;DHT22;3369;49.906;8.598;2023-05-10T06:24:49;13.40;99.90
6666;DHT22;3369;49.906;8.598;2023-05-10T06:27:15;13.40;99.90
6666;DHT22;3369;49.906;8.598;2023-05-10T06:29:41;13.50;99.90
6666;DHT22;3369;49.906;8.598;2023-05-10T06:32:06;13.50;99.90
6666;DHT22;3369;49.906;8.598;2023-05-10T06:34:32;13.50;99.90
6666;DHT22;3369;49.906;8.598;2023-05-10T06:36:58;13.50;99.90
6666;DHT22;3369;49.906;8.598;2023-05-10T06:39:23;13.50;99.90
6666;DHT22;3369;49.906;8.598;2023-05-10T06:41:49;13.50;99.90
6666;DHT22;3369;49.906;8.598;2023-05-10T06:44:15;13.50;99.90
6666;DHT22;3369;49.906;8.598;2023-05-10T06:46:40;13.50;99.90
6666;DHT22;3369;49.906;8.598;2023-05-10T06:49:07;13.40;99.90
6666;DHT22;3369;49.906;8.598;2023-05-10T07:13:31;13.70;99.90
6666;DHT22;3369;49.906;8.598;2023-05-10T07:15:57;13.70;99.90
6666;DHT22;3369;49.906;8.598;2023-05-10T07:18:24;13.70;99.90
6666;DHT22;3369;49.906;8.598;2023-05-10T07:20:49;13.80;99.90
6666;DHT22;3369;49.906;8.598;2023-05-10T07:23:15;13.90;99.90
6666;DHT22;3369;49.906;8.598;2023-05-10T07:25:48;13.90;99.90
6666;DHT22;3369;49.906;8.598;2023-05-10T07:28:14;14.00;99.90
6666;DHT22;3369;49.906;8.598;2023-05-10T07:30:40;14.10;99.90
6666;DHT22;3369;49.906;8.598;2023-05-10T07:33:06;14.20;99.90
6666;DHT22;3369;49.906;8.598;2023-05-10T07:35:33;14.30;99.90
6666;DHT22;3369;49.906;8.598;2023-05-10T07:37:59;14.30;99.90
6666;DHT22;3369;49.906;8.598;2023-05-10T07:40:25;14.40;99.90
6666;DHT22;3369;49.906;8.598;2023-05-10T07:42:51;14.40;99.90
6666;DHT22;3369;49.906;8.598;2023-05-10T07:45:17;14.50;99.90
6666;DHT22;3369;49.906;8.598;2023-05-10T07:47:43;14.50;99.90
6666;DHT22;3369;49.906;8.598;2023-05-10T07:50:09;14.60;99.90
6666;DHT22;3369;49.906;8.598;2023-05-10T07:52:34;14.70;99.90
6666;DHT22;3369;49.906;8.598;2023-05-10T07:55:00;14.70;99.90
6666;DHT22;3369;49.906;8.598;2023-05-10T07:57:26;14.80;99.90
6666;DHT22;3369;49.906;8.598;2023-05-10T07:59:51;14.90;99.90
6666;DHT22;3369;49.906;8.598;2023-05-10T08:02:17;14.90;99.90
6666;DHT22;3369;49.906;8.598;2023-05-10T08:04:42;14.90;99.90
6666;DHT22;3369;49.906;8.598;2023-05-10T08:07:08;14.90;99.90
6666;DHT22;3369;49.906;8.598;2023-05-10T08:09:34;14.90;99.90
6666;DHT22;3369;49.906;8.598;2023-05-10T08:11:59;14.80;99.90
6666;DHT22;3369;49.906;8.598;2023-05-10T08:14:28;14.80;99.90
6666;DHT22;3369;49.906;8.598;2023-05-10T08:16:54;14.80;99.90
6666;DHT22;3369;49.906;8.598;2023-05-10T08:19:19;14.80;99.90
6666;DHT22;3369;49.906;8.598;2023-05-10T08:21:47;14.90;99.90
6666;DHT22;3369;49.906;8.598;2023-05-10T08:24:13;14.90;99.90
6666;DHT22;3369;49.906;8.598;2023-05-10T08:26:38;14.90;99.90
6666;DHT22;3369;49.906;8.598;2023-05-10T08:29:04;14.80;99.90
6666;DHT22;3369;49.906;8.598;2023-05-10T08:31:30;14.70;99.90
6666;DHT22;3369;49.906;8.598;2023-05-10T08:33:55;14.60;99.90
6666;DHT22;3369;49.906;8.598;2023-05-10T08:36:21;14.50;99.90
6666;DHT22;3369;49.906;8.598;2023-05-10T08:38:50;14.50;99.90
6666;DHT22;3369;49.906;8.598;2023-05-10T08:41:19;14.40;99.90
6666;DHT22;3369;49.906;8.598;2023-05-10T08:43:46;14.40;99.90
6666;DHT22;3369;49.906;8.598;2023-05-10T08:46:16;14.30;99.90
6666;DHT22;3369;49.906;8.598;2023-05-10T08:48:46;14.30;99.90
6666;DHT22;3369;49.906;8.598;2023-05-10T08:51:24;14.40;99.90
6666;DHT22;3369;49.906;8.598;2023-05-10T08:53:52;14.40;99.90
6666;DHT22;3369;49.906;8.598;2023-05-10T08:56:18;14.40;99.90
6666;DHT22;3369;49.906;8.598;2023-05-10T08:58:45;14.50;99.90
6666;DHT22;3369;49.906;8.598;2023-05-10T09:01:12;14.60;99.90
6666;DHT22;3369;49.906;8.598;2023-05-10T09:03:39;14.70;99.90
6666;DHT22;3369;49.906;8.598;2023-05-10T09:06:05;14.70;99.90
6666;DHT22;3369;49.906;8.598;2023-05-10T09:08:32;14.70;99.90
6666;DHT22;3369;49.906;8.598;2023-05-10T09:11:00;14.70;99.90
6666;DHT22;3369;49.906;8.598;2023-05-10T09:13:26;14.80;99.90
6666;DHT22;3369;49.906;8.598;2023-05-10T09:15:53;14.80;99.90
6666;DHT22;3369;49.906;8.598;2023-05-10T09:18:18;14.90;99.90
6666;DHT22;3369;49.906;8.598;2023-05-10T09:20:44;14.90;99.90
6666;DHT22;3369;49.906;8.598;2023-05-10T09:23:10;15.00;99.90
6666;DHT22;3369;49.906;8.598;2023-05-10T09:25:35;15.00;99.90
6666;DHT22;3369;49.906;8.598;2023-05-10T09:28:06;15.10;99.90
6666;DHT22;3369;49.906;8.598;2023-05-10T09:30:32;15.20;99.90
6666;DHT22;3369;49.906;8.598;2023-05-10T09:32:59;15.40;99.90
6666;DHT22;3369;49.906;8.598;2023-05-10T09:35:26;15.50;99.90
6666;DHT22;3369;49.906;8.598;2023-05-10T09:37:54;15.60;99.90
6666;DHT22;3369;49.906;8.598;2023-05-10T09:40:25;15.60;99.90
6666;DHT22;3369;49.906;8.598;2023-05-10T09:43:02;15.50;99.90
6666;DHT22;3369;49.906;8.598;2023-05-10T09:45:32;15.40;99.90
6666;DHT22;3369;49.906;8.598;2023-05-10T09:48:00;15.30;99.90
6666;DHT22;3369;49.906;8.598;2023-05-10T09:50:27;15.20;99.90
6666;DHT22;3369;49.906;8.598;2023-05-10T09:55:24;15.00;99.90
6666;DHT22;3369;49.906;8.598;2023-05-10T09:57:59;15.00;99.90
6666;DHT22;3369;49.906;8.598;2023-05-10T10:00:26;15.00;99.90
6666;DHT22;3369;49.906;8.598;2023-05-10T10:02:57;15.00;99.90
6666;DHT22;3369;49.906;8.598;2023-05-10T10:05:30;15.00;99.90
6666;DHT22;3369;49.906;8.598;2023-05-10T10:07:57;15.00;99.90
6666;DHT22;3369;49.906;8.598;2023-05-10T10:10:25;15.00;99.90
6666;DHT22;3369;49.906;8.598;2023-05-10T10:12:51;15.10;99.90
6666;DHT22;3369;49.906;8.598;2023-05-10T10:15:17;15.20;99.90
6666;DHT22;3369;49.906;8.598;2023-05-10T10:17:43;15.30;99.90
6666;DHT22;3369;49.906;8.598;2023-05-10T10:20:09;15.40;99.90
6666;DHT22;3369;49.906;8.598;2023-05-10T10:22:36;15.60;99.90
6666;DHT22;3369;49.906;8.598;2023-05-10T10:25:04;15.70;99.90
6666;DHT22;3369;49.906;8.598;2023-05-10T10:35:33;16.00;99.90
6666;DHT22;3369;49.906;8.598;2023-05-10T10:38:00;16.00;99.90
6666;DHT22;3369;49.906;8.598;2023-05-10T10:40:32;16.00;99.90
6666;DHT22;3369;49.906;8.598;2023-05-10T10:43:27;16.00;99.90
6666;DHT22;3369;49.906;8.598;2023-05-10T10:46:16;16.00;99.90
6666;DHT22;3369;49.906;8.598;2023-05-10T10:48:51;15.80;99.90
6666;DHT22;3369;49.906;8.598;2023-05-10T10:51:37;15.70;99.90
6666;DHT22;3369;49.906;8.598;2023-05-10T10:54:12;15.60;99.90
6666;DHT22;3369;49.906;8.598;2023-05-10T10:56:37;15.40;99.90
6666;DHT22;3369;49.906;8.598;2023-05-10T10:59:03;15.40;99.90
6666;DHT22;3369;49.906;8.598;2023-05-10T11:01:35;15.30;99.90
6666;DHT22;3369;49.906;8.598;2023-05-10T11:06:30;15.10;99.90
6666;DHT22;3369;49.906;8.598;2023-05-10T11:09:07;15.00;99.90
6666;DHT22;3369;49.906;8.598;2023-05-10T11:11:34;14.90;99.90
6666;DHT22;3369;49.906;8.598;2023-05-10T11:14:04;14.90;99.90
6666;DHT22;3369;49.906;8.598;2023-05-10T11:16:42;14.80;99.90
6666;DHT22;3369;49.906;8.598;2023-05-10T11:19:12;14.80;99.90
6666;DHT22;3369;49.906;8.598;2023-05-10T11:22:13;14.80;99.90
6666;DHT22;3369;49.906;8.598;2023-05-10T11:24:37;14.80;99.90
6666;DHT22;3369;49.906;8.598;2023-05-10T11:27:03;14.90;99.90
6666;DHT22;3369;49.906;8.598;2023-05-10T11:29:29;14.90;99.90
6666;DHT22;3369;49.906;8.598;2023-05-10T11:31:57;14.90;99.90
6666;DHT22;3369;49.906;8.598;2023-05-10T11:34:30;15.00;99.90
6666;DHT22;3369;49.906;8.598;2023-05-10T11:36:59;15.10;99.90
6666;DHT22;3369;49.906;8.598;2023-05-10T11:39:29;15.40;99.90
6666;DHT22;3369;49.906;8.598;2023-05-10T11:41:57;15.60;99.90
6666;DHT22;3369;49.906;8.598;2023-05-10T11:44:23;15.90;99.90
6666;DHT22;3369;49.906;8.598;2023-05-10T11:46:50;16.10;99.90
6666;DHT22;3369;49.906;8.598;2023-05-10T11:49:15;16.40;99.90
6666;DHT22;3369;49.906;8.598;2023-05-10T11:51:41;16.60;99.90
6666;DHT22;3369;49.906;8.598;2023-05-10T11:54:10;16.80;99.90
6666;DHT22;3369;49.906;8.598;2023-05-10T11:56:39;17.00;99.90
6666;DHT22;3369;49.906;8.598;2023-05-10T11:59:05;17.20;99.90
6666;DHT22;3369;49.906;8.598;2023-05-10T12:01:31;17.30;99.90
6666;DHT22;3369;49.906;8.598;2023-05-10T12:03:58;17.40;99.90
6666;DHT22;3369;49.906;8.598;2023-05-10T12:06:30;17.50;99.90
6666;DHT22;3369;49.906;8.598;2023-05-10T12:08:56;17.50;99.90
6666;DHT22;3369;49.906;8.598;2023-05-10T12:11:25;17.50;99.90
6666;DHT22;3369;49.906;8.598;2023-05-10T12:13:51;17.50;99.90
6666;DHT22;3369;49.906;8.598;2023-05-10T12:16:25;17.60;99.90
6666;DHT22;3369;49.906;8.598;2023-05-10T12:18:53;17.70;99.90
6666;DHT22;3369;49.906;8.598;2023-05-10T12:21:20;17.80;99.90
6666;DHT22;3369;49.906;8.598;2023-05-10T12:23:50;17.80;99.90
6666;DHT22;3369;49.906;8.598;2023-05-10T12:26:16;17.90;99.90
6666;DHT22;3369;49.906;8.598;2023-05-10T12:28:41;17.80;99.90
6666;DHT22;3369;49.906;8.598;2023-05-10T12:31:08;17.80;99.90
6666;DHT22;3369;49.906;8.598;2023-05-10T12:33:41;17.80;99.90
6666;DHT22;3369;49.906;8.598;2023-05-10T12:36:12;17.70;99.90
6666;DHT22;3369;49.906;8.598;2023-05-10T12:38:40;17.70;99.90
6666;DHT22;3369;49.906;8.598;2023-05-10T12:41:15;17.70;99.90
6666;DHT22;3369;49.906;8.598;2023-05-10T12:43:41;17.80;99.90
6666;DHT22;3369;49.906;8.598;2023-05-10T12:46:15;17.90;99.90
6666;DHT22;3369;49.906;8.598;2023-05-10T12:48:43;18.10;99.90
6666;DHT22;3369;49.906;8.598;2023-05-10T12:51:09;18.20;99.90
6666;DHT22;3369;49.906;8.598;2023-05-10T12:53:37;18.30;99.90
6666;DHT22;3369;49.906;8.598;2023-05-10T12:56:03;18.30;99.90
6666;DHT22;3369;49.906;8.598;2023-05-10T12:58:29;18.30;99.90
6666;DHT22;3369;49.906;8.598;2023-05-10T13:00:55;18.30;99.90
6666;DHT22;3369;49.906;8.598;2023-05-10T13:03:22;18.30;99.90
6666;DHT22;3369;49.906;8.598;2023-05-10T13:05:48;18.20;99.90
6666;DHT22;3369;49.906;8.598;2023-05-10T13:08:14;18.20;99.90
6666;DHT22;3369;49.906;8.598;2023-05-10T13:30:13;17.80;99.90
6666;DHT22;3369;49.906;8.598;2023-05-10T13:32:39;17.70;99.90
6666;DHT22;3369;49.906;8.598;2023-05-10T13:35:05;17.60;99.90
6666;DHT22;3369;49.906;8.598;2023-05-10T13:37:31;17.60;99.90
6666;DHT22;3369;49.906;8.598;2023-05-10T13:39:57;17.50;99.90
6666;DHT22;3369;49.906;8.598;2023-05-10T13:42:23;17.50;99.90
6666;DHT22;3369;49.906;8.598;2023-05-10T13:44:49;17.50;99.90
6666;DHT22;3369;49.906;8.598;2023-05-10T13:47:15;17.60;99.90
6666;DHT22;3369;49.906;8.598;2023-05-10T13:49:41;17.70;99.90
6666;DHT22;3369;49.906;8.598;2023-05-10T13:52:07;17.80;99.90
6666;DHT22;3369;49.906;8.598;2023-05-10T13:54:36;17.90;99.90
6666;DHT22;3369;49.906;8.598;2023-05-10T13:57:03;18.00;99.90
6666;DHT22;3369;49.906;8.598;2023-05-10T13:59:30;18.10;99.90
6666;DHT22;3369;49.906;8.598;2023-05-10T14:01:59;18.10;99.90
6666;DHT22;3369;49.906;8.598;2023-05-10T14:04:25;18.00;99.90
6666;DHT22;3369;49.906;8.598;2023-05-10T14:06:51;18.00;99.90
6666;DHT22;3369;49.906;8.598;2023-05-10T14:09:18;18.00;99.90
6666;DHT22;3369;49.906;8.598;2023-05-10T14:11:43;18.00;99.90
6666;DHT22;3369;49.906;8.598;2023-05-10T14:14:10;18.00;99.90
6666;DHT22;3369;49.906;8.598;2023-05-10T14:16:37;18.00;99.90
6666;DHT22;3369;49.906;8.598;2023-05-10T14:19:02;18.00;99.90
6666;DHT22;3369;49.906;8.598;2023-05-10T14:21:28;18.00;99.90
6666;DHT22;3369;49.906;8.598;2023-05-10T14:23:55;18.00;99.90
6666;DHT22;3369;49.906;8.598;2023-05-10T14:26:21;17.90;99.90
6666;DHT22;3369;49.906;8.598;2023-05-10T14:28:47;17.80;99.90
6666;DHT22;3369;49.906;8.598;2023-05-10T14:31:13;17.70;99.90
6666;DHT22;3369;49.906;8.598;2023-05-10T14:33:39;17.60;99.90
6666;DHT22;3369;49.906;8.598;2023-05-10T14:36:06;17.50;99.90
6666;DHT22;3369;49.906;8.598;2023-05-10T14:38:32;17.40;99.90
6666;DHT22;3369;49.906;8.598;2023-05-10T14:40:58;17.30;99.90
6666;DHT22;3369;49.906;8.598;2023-05-10T14:43:24;17.30;99.90
6666;DHT22;3369;49.906;8.598;2023-05-10T14:45:49;17.20;99.90
6666;DHT22;3369;49.906;8.598;2023-05-10T14:48:15;17.20;99.90
6666;DHT22;3369;49.906;8.598;2023-05-10T14:50:43;17.20;99.90
6666;DHT22;3369;49.906;8.598;2023-05-10T14:53:08;17.30;99.90
6666;DHT22;3369;49.906;8.598;2023-05-10T14:55:34;17.30;99.90
6666;DHT22;3369;49.906;8.598;2023-05-10T14:58:01;17.40;99.90
6666;DHT22;3369;49.906;8.598;2023-05-10T15:00:28;17.40;99.90
6666;DHT22;3369;49.906;8.598;2023-05-10T15:02:54;17.50;99.90
6666;DHT22;3369;49.906;8.598;2023-05-10T15:05:20;17.50;99.90
6666;DHT22;3369;49.906;8.598;2023-05-10T15:07:45;17.50;99.90
6666;DHT22;3369;49.906;8.598;2023-05-10T15:10:11;17.50;99.90
6666;DHT22;3369;49.906;8.598;2023-05-10T15:12:37;17.40;99.90
6666;DHT22;3369;49.906;8.598;2023-05-10T15:15:04;17.40;99.90
6666;DHT22;3369;49.906;8.598;2023-05-10T15:17:29;17.40;99.90
6666;DHT22;3369;49.906;8.598;2023-05-10T15:19:55;17.40;99.90
6666;DHT22;3369;49.906;8.598;2023-05-10T15:22:21;17.30;99.90
6666;DHT22;3369;49.906;8.598;2023-05-10T15:24:47;17.30;99.90
6666;DHT22;3369;49.906;8.598;2023-05-10T15:27:13;17.30;99.90
6666;DHT22;3369;49.906;8.598;2023-05-10T15:29:39;17.30;99.90
6666;DHT22;3369;49.906;8.598;2023-05-10T15:32:04;17.30;99.90
6666;DHT22;3369;49.906;8.598;2023-05-10T15:34:30;17.20;99.90
6666;DHT22;3369;49.906;8.598;2023-05-10T15:36:56;17.20;99.90
6666;DHT22;3369;49.906;8.598;2023-05-10T15:39:21;17.20;99.90
6666;DHT22;3369;49.906;8.598;2023-05-10T15:41:47;17.20;99.90
6666;DHT22;3369;49.906;8.598;2023-05-10T15:44:13;17.20;99.90
6666;DHT22;3369;49.906;8.598;2023-05-10T15:46:38;17.20;99.90
6666;DHT22;3369;49.906;8.598;2023-05-10T15:49:04;17.20;99.90
6666;DHT22;3369;49.906;8.598;2023-05-10T15:51:31;17.30;99.90
6666;DHT22;3369;49.906;8.598;2023-05-10T15:53:58;17.30;99.90
6666;DHT22;3369;49.906;8.598;2023-05-10T15:56:24;17.30;99.90
6666;DHT22;3369;49.906;8.598;2023-05-10T15:58:49;17.30;99.90
6666;DHT22;3369;49.906;8.598;2023-05-10T16:01:15;17.30;99.90
6666;DHT22;3369;49.906;8.598;2023-05-10T16:03:41;17.30;99.60
6666;DHT22;3369;49.906;8.598;2023-05-10T16:06:07;17.20;99.80
6666;DHT22;3369;49.906;8.598;2023-05-10T16:08:33;17.20;99.80
6666;DHT22;3369;49.906;8.598;2023-05-10T16:10:59;17.20;99.90
6666;DHT22;3369;49.906;8.598;2023-05-10T16:13:25;17.10;99.50
6666;DHT22;3369;49.906;8.598;2023-05-10T16:15:51;17.10;99.70
6666;DHT22;3369;49.906;8.598;2023-05-10T16:18:17;17.10;99.50
6666;DHT22;3369;49.906;8.598;2023-05-10T16:20:43;17.10;99.30
6666;DHT22;3369;49.906;8.598;2023-05-10T16:23:09;17.00;99.50
6666;DHT22;3369;49.906;8.598;2023-05-10T16:25:35;17.00;99.40
6666;DHT22;3369;49.906;8.598;2023-05-10T16:28:01;17.00;99.60
6666;DHT22;3369;49.906;8.598;2023-05-10T16:30:27;17.10;99.40
6666;DHT22;3369;49.906;8.598;2023-05-10T16:32:55;17.10;99.20
6666;DHT22;3369;49.906;8.598;2023-05-10T16:35:21;17.10;99.30
6666;DHT22;3369;49.906;8.598;2023-05-10T16:37:48;17.20;98.90
6666;DHT22;3369;49.906;8.598;2023-05-10T16:40:14;17.20;99.10
6666;DHT22;3369;49.906;8.598;2023-05-10T16:42:40;17.20;99.00
6666;DHT22;3369;49.906;8.598;2023-05-10T16:45:06;17.20;99.10
6666;DHT22;3369;49.906;8.598;2023-05-10T16:47:32;17.30;99.40
6666;DHT22;3369;49.906;8.598;2023-05-10T16:49:59;17.30;99.40
6666;DHT22;3369;49.906;8.598;2023-05-10T16:52:26;17.30;99.20
6666;DHT22;3369;49.906;8.598;2023-05-10T16:54:53;17.30;98.80
6666;DHT22;3369;49.906;8.598;2023-05-10T16:57:19;17.30;98.60
6666;DHT22;3369;49.906;8.598;2023-05-10T16:59:45;17.20;98.60
6666;DHT22;3369;49.906;8.598;2023-05-10T17:02:12;17.20;98.60
6666;DHT22;3369;49.906;8.598;2023-05-10T17:04:37;17.20;98.40
6666;DHT22;3369;49.906;8.598;2023-05-10T17:07:03;17.20;98.60
6666;DHT22;3369;49.906;8.598;2023-05-10T17:09:29;17.20;98.30
6666;DHT22;3369;49.906;8.598;2023-05-10T17:11:55;17.10;98.50
6666;DHT22;3369;49.906;8.598;2023-05-10T17:14:20;17.10;98.40
6666;DHT22;3369;49.906;8.598;2023-05-10T17:16:46;17.10;98.50
6666;DHT22;3369;49.906;8.598;2023-05-10T17:19:13;17.10;98.80
6666;DHT22;3369;49.906;8.598;2023-05-10T17:21:39;17.00;98.40
6666;DHT22;3369;49.906;8.598;2023-05-10T17:24:05;17.00;98.50
6666;DHT22;3369;49.906;8.598;2023-05-10T17:26:31;17.00;98.40
6666;DHT22;3369;49.906;8.598;2023-05-10T17:28:57;17.00;98.70
6666;DHT22;3369;49.906;8.598;2023-05-10T17:31:22;16.90;98.80